sensor_id;sensor_type;location;lat;lon;timestamp;P1;durP1;ratioP1;P2;durP2;ratioP2
16804;SDS011;8520;50.102;20.010;2022-09-20T00:00:10;96.37;;;89.93;;
16804;SDS011;8520;50.102;20.010;2022-09-20T00:03:01;97.20;;;90.93;;
16804;SDS011;8520;50.102;20.010;2022-09-20T00:05:58;95.93;;;89.73;;
16804;SDS011;8520;50.102;20.010;2022-09-20T00:08:48;96.63;;;89.90;;
16804;SDS011;8520;50.102;20.010;2022-09-20T00:11:45;96.37;;;89.87;;
16804;SDS011;8520;50.102;20.010;2022-09-20T00:14:34;97.70;;;91.20;;
16804;SDS011;8520;50.102;20.010;2022-09-20T00:17:31;97.40;;;91.00;;
16804;SDS011;8520;50.102;20.010;2022-09-20T00:20:21;98.20;;;91.70;;
16804;SDS011;8520;50.102;20.010;2022-09-20T00:23:18;98.17;;;91.50;;
16804;SDS011;8520;50.102;20.010;2022-09-20T00:26:07;97.90;;;91.40;;
16804;SDS011;8520;50.102;20.010;2022-09-20T00:29:04;99.57;;;92.67;;
16804;SDS011;8520;50.102;20.010;2022-09-20T00:31:53;99.37;;;92.80;;
16804;SDS011;8520;50.102;20.010;2022-09-20T00:34:51;99.23;;;92.73;;
16804;SDS011;8520;50.102;20.010;2022-09-20T00:37:58;100.40;;;93.50;;
16804;SDS011;8520;50.102;20.010;2022-09-20T00:40:56;96.90;;;90.43;;
16804;SDS011;8520;50.102;20.010;2022-09-20T00:43:45;100.67;;;93.80;;
16804;SDS011;8520;50.102;20.010;2022-09-20T00:46:34;99.63;;;92.83;;
16804;SDS011;8520;50.102;20.010;2022-09-20T00:49:25;98.47;;;91.90;;
16804;SDS011;8520;50.102;20.010;2022-09-20T00:52:15;96.80;;;90.37;;
16804;SDS011;8520;50.102;20.010;2022-09-20T00:55:06;95.23;;;88.73;;
16804;SDS011;8520;50.102;20.010;2022-09-20T00:57:56;97.17;;;90.73;;
16804;SDS011;8520;50.102;20.010;2022-09-20T01:00:47;97.70;;;91.23;;
16804;SDS011;8520;50.102;20.010;2022-09-20T01:03:46;97.37;;;90.87;;
16804;SDS011;8520;50.102;20.010;2022-09-20T01:06:35;96.60;;;90.10;;
16804;SDS011;8520;50.102;20.010;2022-09-20T01:09:24;94.20;;;88.00;;
16804;SDS011;8520;50.102;20.010;2022-09-20T01:12:15;96.73;;;90.13;;
16804;SDS011;8520;50.102;20.010;2022-09-20T01:15:07;95.60;;;89.40;;
16804;SDS011;8520;50.102;20.010;2022-09-20T01:17:57;96.83;;;90.33;;
16804;SDS011;8520;50.102;20.010;2022-09-20T01:20:47;96.07;;;89.77;;
16804;SDS011;8520;50.102;20.010;2022-09-20T01:23:45;97.20;;;90.80;;
16804;SDS011;8520;50.102;20.010;2022-09-20T01:26:53;96.70;;;90.27;;
16804;SDS011;8520;50.102;20.010;2022-09-20T01:29:59;95.63;;;89.33;;
16804;SDS011;8520;50.102;20.010;2022-09-20T01:32:59;95.87;;;89.57;;
16804;SDS011;8520;50.102;20.010;2022-09-20T01:35:54;96.37;;;89.97;;
16804;SDS011;8520;50.102;20.010;2022-09-20T01:38:49;98.17;;;91.57;;
16804;SDS011;8520;50.102;20.010;2022-09-20T01:41:47;96.33;;;90.03;;
16804;SDS011;8520;50.102;20.010;2022-09-20T01:44:44;96.70;;;90.27;;
16804;SDS011;8520;50.102;20.010;2022-09-20T01:47:43;96.67;;;90.50;;
16804;SDS011;8520;50.102;20.010;2022-09-20T01:50:45;95.60;;;89.20;;
16804;SDS011;8520;50.102;20.010;2022-09-20T01:54:07;96.53;;;90.13;;
16804;SDS011;8520;50.102;20.010;2022-09-20T01:57:21;97.60;;;91.30;;
16804;SDS011;8520;50.102;20.010;2022-09-20T02:00:22;95.83;;;89.63;;
16804;SDS011;8520;50.102;20.010;2022-09-20T02:03:22;94.47;;;88.40;;
16804;SDS011;8520;50.102;20.010;2022-09-20T02:06:36;91.87;;;86.17;;
16804;SDS011;8520;50.102;20.010;2022-09-20T02:09:43;93.17;;;87.30;;
16804;SDS011;8520;50.102;20.010;2022-09-20T02:12:51;94.33;;;88.27;;
16804;SDS011;8520;50.102;20.010;2022-09-20T02:19:05;90.93;;;85.33;;
16804;SDS011;8520;50.102;20.010;2022-09-20T02:22:15;95.30;;;89.20;;
16804;SDS011;8520;50.102;20.010;2022-09-20T02:28:30;91.80;;;85.87;;
16804;SDS011;8520;50.102;20.010;2022-09-20T02:31:40;95.07;;;88.77;;
16804;SDS011;8520;50.102;20.010;2022-09-20T02:34:47;93.83;;;87.90;;
16804;SDS011;8520;50.102;20.010;2022-09-20T02:37:46;92.00;;;86.27;;
16804;SDS011;8520;50.102;20.010;2022-09-20T02:44:27;92.80;;;87.00;;
16804;SDS011;8520;50.102;20.010;2022-09-20T02:47:29;90.30;;;84.63;;
16804;SDS011;8520;50.102;20.010;2022-09-20T02:50:25;93.13;;;87.53;;
16804;SDS011;8520;50.102;20.010;2022-09-20T02:53:25;91.80;;;85.90;;
16804;SDS011;8520;50.102;20.010;2022-09-20T02:56:24;89.90;;;84.13;;
16804;SDS011;8520;50.102;20.010;2022-09-20T02:59:21;87.17;;;81.80;;
16804;SDS011;8520;50.102;20.010;2022-09-20T03:02:18;89.17;;;83.50;;
16804;SDS011;8520;50.102;20.010;2022-09-20T03:05:16;87.97;;;82.67;;
16804;SDS011;8520;50.102;20.010;2022-09-20T03:08:19;88.63;;;83.23;;
16804;SDS011;8520;50.102;20.010;2022-09-20T03:11:21;88.30;;;83.00;;
16804;SDS011;8520;50.102;20.010;2022-09-20T03:14:18;87.30;;;81.77;;
16804;SDS011;8520;50.102;20.010;2022-09-20T03:17:13;87.30;;;82.03;;
16804;SDS011;8520;50.102;20.010;2022-09-20T03:20:14;84.53;;;79.37;;
16804;SDS011;8520;50.102;20.010;2022-09-20T03:23:11;84.83;;;79.63;;
16804;SDS011;8520;50.102;20.010;2022-09-20T03:26:15;86.90;;;81.47;;
16804;SDS011;8520;50.102;20.010;2022-09-20T03:29:16;83.57;;;78.67;;
16804;SDS011;8520;50.102;20.010;2022-09-20T03:32:17;84.73;;;79.53;;
16804;SDS011;8520;50.102;20.010;2022-09-20T03:35:22;83.60;;;78.70;;
16804;SDS011;8520;50.102;20.010;2022-09-20T03:38:27;85.73;;;80.73;;
16804;SDS011;8520;50.102;20.010;2022-09-20T03:45:06;85.73;;;80.73;;
16804;SDS011;8520;50.102;20.010;2022-09-20T03:48:20;83.37;;;78.47;;
16804;SDS011;8520;50.102;20.010;2022-09-20T03:51:26;85.10;;;80.00;;
16804;SDS011;8520;50.102;20.010;2022-09-20T03:57:53;84.23;;;79.03;;
16804;SDS011;8520;50.102;20.010;2022-09-20T04:01:05;85.93;;;80.63;;
16804;SDS011;8520;50.102;20.010;2022-09-20T04:04:11;84.87;;;79.80;;
16804;SDS011;8520;50.102;20.010;2022-09-20T04:07:11;84.27;;;79.33;;
16804;SDS011;8520;50.102;20.010;2022-09-20T04:10:23;84.43;;;79.43;;
16804;SDS011;8520;50.102;20.010;2022-09-20T04:13:23;83.20;;;78.27;;
16804;SDS011;8520;50.102;20.010;2022-09-20T04:16:24;83.03;;;77.93;;
16804;SDS011;8520;50.102;20.010;2022-09-20T04:19:21;83.40;;;78.60;;
16804;SDS011;8520;50.102;20.010;2022-09-20T04:22:18;81.93;;;77.03;;
16804;SDS011;8520;50.102;20.010;2022-09-20T04:25:11;80.03;;;75.23;;
16804;SDS011;8520;50.102;20.010;2022-09-20T04:28:04;78.40;;;73.70;;
16804;SDS011;8520;50.102;20.010;2022-09-20T04:31:04;77.03;;;72.53;;
16804;SDS011;8520;50.102;20.010;2022-09-20T04:34:12;78.40;;;73.80;;
16804;SDS011;8520;50.102;20.010;2022-09-20T04:37:15;78.70;;;74.20;;
16804;SDS011;8520;50.102;20.010;2022-09-20T04:40:13;77.43;;;72.93;;
16804;SDS011;8520;50.102;20.010;2022-09-20T04:43:19;76.27;;;71.87;;
16804;SDS011;8520;50.102;20.010;2022-09-20T04:56:48;74.80;;;70.50;;
16804;SDS011;8520;50.102;20.010;2022-09-20T04:59:58;74.17;;;69.73;;
16804;SDS011;8520;50.102;20.010;2022-09-20T05:03:17;73.20;;;69.17;;
16804;SDS011;8520;50.102;20.010;2022-09-20T05:13:08;72.37;;;68.17;;
16804;SDS011;8520;50.102;20.010;2022-09-20T05:16:03;69.53;;;65.73;;
16804;SDS011;8520;50.102;20.010;2022-09-20T05:19:10;70.37;;;66.27;;
16804;SDS011;8520;50.102;20.010;2022-09-20T05:22:18;70.77;;;66.63;;
16804;SDS011;8520;50.102;20.010;2022-09-20T05:25:24;70.27;;;66.27;;
16804;SDS011;8520;50.102;20.010;2022-09-20T05:28:42;71.77;;;67.57;;
16804;SDS011;8520;50.102;20.010;2022-09-20T05:31:36;68.37;;;64.47;;
16804;SDS011;8520;50.102;20.010;2022-09-20T05:34:30;68.07;;;64.17;;
16804;SDS011;8520;50.102;20.010;2022-09-20T05:37:32;64.60;;;61.00;;
16804;SDS011;8520;50.102;20.010;2022-09-20T05:40:29;65.93;;;62.13;;
16804;SDS011;8520;50.102;20.010;2022-09-20T05:43:23;64.10;;;60.47;;
16804;SDS011;8520;50.102;20.010;2022-09-20T05:46:24;61.97;;;58.67;;
16804;SDS011;8520;50.102;20.010;2022-09-20T05:49:24;63.30;;;59.60;;
16804;SDS011;8520;50.102;20.010;2022-09-20T05:52:28;61.60;;;58.20;;
16804;SDS011;8520;50.102;20.010;2022-09-20T05:55:32;62.70;;;59.20;;
16804;SDS011;8520;50.102;20.010;2022-09-20T05:58:43;61.27;;;57.87;;
16804;SDS011;8520;50.102;20.010;2022-09-20T06:01:44;61.90;;;58.20;;
16804;SDS011;8520;50.102;20.010;2022-09-20T06:04:46;61.93;;;58.43;;
16804;SDS011;8520;50.102;20.010;2022-09-20T06:07:49;60.73;;;57.23;;
16804;SDS011;8520;50.102;20.010;2022-09-20T06:10:56;60.53;;;57.03;;
16804;SDS011;8520;50.102;20.010;2022-09-20T06:13:54;62.20;;;58.27;;
16804;SDS011;8520;50.102;20.010;2022-09-20T06:16:53;59.67;;;56.17;;
16804;SDS011;8520;50.102;20.010;2022-09-20T06:19:53;58.93;;;55.63;;
16804;SDS011;8520;50.102;20.010;2022-09-20T06:22:57;59.50;;;55.97;;
16804;SDS011;8520;50.102;20.010;2022-09-20T06:25:48;58.23;;;54.83;;
16804;SDS011;8520;50.102;20.010;2022-09-20T06:28:44;57.60;;;54.20;;
16804;SDS011;8520;50.102;20.010;2022-09-20T06:31:35;56.83;;;53.50;;
16804;SDS011;8520;50.102;20.010;2022-09-20T06:34:32;56.67;;;53.43;;
16804;SDS011;8520;50.102;20.010;2022-09-20T06:40:47;55.27;;;52.03;;
16804;SDS011;8520;50.102;20.010;2022-09-20T06:43:55;55.93;;;52.43;;
16804;SDS011;8520;50.102;20.010;2022-09-20T06:46:51;55.47;;;51.97;;
16804;SDS011;8520;50.102;20.010;2022-09-20T06:49:41;53.10;;;49.87;;
16804;SDS011;8520;50.102;20.010;2022-09-20T06:52:30;55.93;;;52.13;;
16804;SDS011;8520;50.102;20.010;2022-09-20T06:55:19;54.70;;;51.27;;
16804;SDS011;8520;50.102;20.010;2022-09-20T06:58:15;54.43;;;50.93;;
16804;SDS011;8520;50.102;20.010;2022-09-20T07:01:09;56.37;;;52.70;;
16804;SDS011;8520;50.102;20.010;2022-09-20T07:03:58;59.03;;;55.13;;
16804;SDS011;8520;50.102;20.010;2022-09-20T07:06:59;59.80;;;55.80;;
16804;SDS011;8520;50.102;20.010;2022-09-20T07:09:53;61.20;;;57.30;;
16804;SDS011;8520;50.102;20.010;2022-09-20T07:12:47;61.27;;;57.37;;
16804;SDS011;8520;50.102;20.010;2022-09-20T07:15:36;59.33;;;55.60;;
16804;SDS011;8520;50.102;20.010;2022-09-20T07:18:30;60.80;;;57.00;;
16804;SDS011;8520;50.102;20.010;2022-09-20T07:21:19;59.40;;;55.73;;
16804;SDS011;8520;50.102;20.010;2022-09-20T07:24:09;58.07;;;54.67;;
16804;SDS011;8520;50.102;20.010;2022-09-20T07:27:01;57.73;;;54.20;;
16804;SDS011;8520;50.102;20.010;2022-09-20T07:29:57;55.77;;;52.63;;
16804;SDS011;8520;50.102;20.010;2022-09-20T07:32:45;52.90;;;49.83;;
16804;SDS011;8520;50.102;20.010;2022-09-20T07:35:39;50.93;;;47.97;;
16804;SDS011;8520;50.102;20.010;2022-09-20T07:38:28;50.30;;;47.20;;
16804;SDS011;8520;50.102;20.010;2022-09-20T07:41:18;46.00;;;43.30;;
16804;SDS011;8520;50.102;20.010;2022-09-20T07:44:08;45.33;;;42.77;;
16804;SDS011;8520;50.102;20.010;2022-09-20T07:47:10;46.47;;;42.40;;
16804;SDS011;8520;50.102;20.010;2022-09-20T07:50:00;42.10;;;39.57;;
16804;SDS011;8520;50.102;20.010;2022-09-20T07:52:49;39.27;;;36.97;;
16804;SDS011;8520;50.102;20.010;2022-09-20T07:55:54;36.63;;;34.27;;
16804;SDS011;8520;50.102;20.010;2022-09-20T07:58:45;34.23;;;32.00;;
16804;SDS011;8520;50.102;20.010;2022-09-20T08:01:38;32.20;;;30.40;;
16804;SDS011;8520;50.102;20.010;2022-09-20T08:04:27;28.73;;;27.23;;
16804;SDS011;8520;50.102;20.010;2022-09-20T08:07:22;27.13;;;25.77;;
16804;SDS011;8520;50.102;20.010;2022-09-20T08:10:10;27.13;;;25.63;;
16804;SDS011;8520;50.102;20.010;2022-09-20T08:13:07;27.80;;;26.33;;
16804;SDS011;8520;50.102;20.010;2022-09-20T08:16:18;28.97;;;27.27;;
16804;SDS011;8520;50.102;20.010;2022-09-20T08:19:07;26.87;;;25.27;;
16804;SDS011;8520;50.102;20.010;2022-09-20T08:22:00;27.97;;;25.97;;
16804;SDS011;8520;50.102;20.010;2022-09-20T08:24:49;27.27;;;25.40;;
16804;SDS011;8520;50.102;20.010;2022-09-20T08:27:44;27.07;;;25.57;;
16804;SDS011;8520;50.102;20.010;2022-09-20T08:30:38;25.93;;;24.63;;
16804;SDS011;8520;50.102;20.010;2022-09-20T08:33:28;26.97;;;25.40;;
16804;SDS011;8520;50.102;20.010;2022-09-20T08:36:18;25.80;;;24.50;;
16804;SDS011;8520;50.102;20.010;2022-09-20T08:39:08;24.17;;;22.87;;
16804;SDS011;8520;50.102;20.010;2022-09-20T08:42:18;20.87;;;19.87;;
16804;SDS011;8520;50.102;20.010;2022-09-20T08:45:21;20.47;;;19.47;;
16804;SDS011;8520;50.102;20.010;2022-09-20T08:48:20;21.67;;;20.40;;
16804;SDS011;8520;50.102;20.010;2022-09-20T08:51:16;18.27;;;17.47;;
16804;SDS011;8520;50.102;20.010;2022-09-20T08:54:09;17.30;;;16.50;;
16804;SDS011;8520;50.102;20.010;2022-09-20T08:57:02;16.83;;;15.93;;
16804;SDS011;8520;50.102;20.010;2022-09-20T08:59:53;16.40;;;15.57;;
16804;SDS011;8520;50.102;20.010;2022-09-20T09:02:48;17.40;;;16.40;;
16804;SDS011;8520;50.102;20.010;2022-09-20T09:05:39;15.83;;;14.93;;
16804;SDS011;8520;50.102;20.010;2022-09-20T09:08:34;15.70;;;14.90;;
16804;SDS011;8520;50.102;20.010;2022-09-20T09:11:24;13.97;;;13.37;;
16804;SDS011;8520;50.102;20.010;2022-09-20T09:14:22;12.87;;;12.07;;
16804;SDS011;8520;50.102;20.010;2022-09-20T09:17:30;13.23;;;12.50;;
16804;SDS011;8520;50.102;20.010;2022-09-20T09:20:25;14.93;;;14.03;;
16804;SDS011;8520;50.102;20.010;2022-09-20T09:23:20;15.47;;;14.57;;
16804;SDS011;8520;50.102;20.010;2022-09-20T09:26:17;13.60;;;12.63;;
16804;SDS011;8520;50.102;20.010;2022-09-20T09:29:11;12.57;;;11.87;;
16804;SDS011;8520;50.102;20.010;2022-09-20T09:32:17;11.83;;;11.13;;
16804;SDS011;8520;50.102;20.010;2022-09-20T09:35:19;13.00;;;12.40;;
16804;SDS011;8520;50.102;20.010;2022-09-20T09:38:16;10.67;;;10.17;;
16804;SDS011;8520;50.102;20.010;2022-09-20T09:41:18;10.40;;;9.90;;
16804;SDS011;8520;50.102;20.010;2022-09-20T09:44:19;10.87;;;10.37;;
16804;SDS011;8520;50.102;20.010;2022-09-20T09:47:19;10.97;;;10.37;;
16804;SDS011;8520;50.102;20.010;2022-09-20T09:50:13;8.67;;;8.27;;
16804;SDS011;8520;50.102;20.010;2022-09-20T09:53:10;7.90;;;7.50;;
16804;SDS011;8520;50.102;20.010;2022-09-20T09:56:07;5.87;;;5.57;;
16804;SDS011;8520;50.102;20.010;2022-09-20T09:59:12;9.20;;;8.60;;
16804;SDS011;8520;50.102;20.010;2022-09-20T10:02:17;10.83;;;10.33;;
16804;SDS011;8520;50.102;20.010;2022-09-20T10:05:21;14.33;;;13.63;;
16804;SDS011;8520;50.102;20.010;2022-09-20T10:08:18;16.40;;;15.70;;
16804;SDS011;8520;50.102;20.010;2022-09-20T10:11:19;16.50;;;15.80;;
16804;SDS011;8520;50.102;20.010;2022-09-20T10:14:21;15.90;;;15.30;;
16804;SDS011;8520;50.102;20.010;2022-09-20T10:17:33;16.83;;;16.23;;
16804;SDS011;8520;50.102;20.010;2022-09-20T10:20:39;18.57;;;17.77;;
16804;SDS011;8520;50.102;20.010;2022-09-20T10:23:50;21.27;;;20.40;;
16804;SDS011;8520;50.102;20.010;2022-09-20T10:26:53;21.70;;;20.80;;
16804;SDS011;8520;50.102;20.010;2022-09-20T10:29:58;21.93;;;21.07;;
16804;SDS011;8520;50.102;20.010;2022-09-20T10:32:53;21.37;;;20.53;;
16804;SDS011;8520;50.102;20.010;2022-09-20T10:35:52;19.67;;;18.97;;
16804;SDS011;8520;50.102;20.010;2022-09-20T10:38:50;19.80;;;19.00;;
16804;SDS011;8520;50.102;20.010;2022-09-20T10:41:45;17.03;;;16.43;;
16804;SDS011;8520;50.102;20.010;2022-09-20T10:45:05;17.10;;;16.43;;
16804;SDS011;8520;50.102;20.010;2022-09-20T10:48:22;18.20;;;17.40;;
16804;SDS011;8520;50.102;20.010;2022-09-20T10:51:23;17.53;;;16.73;;
16804;SDS011;8520;50.102;20.010;2022-09-20T10:54:21;12.27;;;11.67;;
16804;SDS011;8520;50.102;20.010;2022-09-20T10:57:24;9.40;;;9.00;;
16804;SDS011;8520;50.102;20.010;2022-09-20T11:00:33;8.10;;;7.70;;
16804;SDS011;8520;50.102;20.010;2022-09-20T11:03:35;9.13;;;8.73;;
16804;SDS011;8520;50.102;20.010;2022-09-20T11:06:42;8.70;;;8.40;;
16804;SDS011;8520;50.102;20.010;2022-09-20T11:09:38;8.20;;;7.77;;
16804;SDS011;8520;50.102;20.010;2022-09-20T11:12:32;7.90;;;7.60;;
16804;SDS011;8520;50.102;20.010;2022-09-20T11:15:26;8.00;;;7.50;;
16804;SDS011;8520;50.102;20.010;2022-09-20T11:18:21;6.57;;;6.27;;
16804;SDS011;8520;50.102;20.010;2022-09-20T11:21:15;6.70;;;6.40;;
16804;SDS011;8520;50.102;20.010;2022-09-20T11:24:10;5.97;;;5.67;;
16804;SDS011;8520;50.102;20.010;2022-09-20T11:27:08;6.20;;;5.80;;
16804;SDS011;8520;50.102;20.010;2022-09-20T11:30:03;5.77;;;5.27;;
16804;SDS011;8520;50.102;20.010;2022-09-20T11:32:55;5.87;;;5.57;;
16804;SDS011;8520;50.102;20.010;2022-09-20T11:35:56;5.53;;;5.33;;
16804;SDS011;8520;50.102;20.010;2022-09-20T11:38:46;5.40;;;5.20;;
16804;SDS011;8520;50.102;20.010;2022-09-20T11:41:39;5.77;;;5.33;;
16804;SDS011;8520;50.102;20.010;2022-09-20T11:44:35;4.57;;;4.37;;
16804;SDS011;8520;50.102;20.010;2022-09-20T11:47:27;4.27;;;4.07;;
16804;SDS011;8520;50.102;20.010;2022-09-20T11:50:44;4.63;;;4.43;;
16804;SDS011;8520;50.102;20.010;2022-09-20T11:53:55;4.70;;;4.50;;
16804;SDS011;8520;50.102;20.010;2022-09-20T11:57:02;4.15;;;3.95;;
16804;SDS011;8520;50.102;20.010;2022-09-20T11:59:54;3.72;;;3.45;;
16804;SDS011;8520;50.102;20.010;2022-09-20T12:02:50;3.55;;;3.35;;
16804;SDS011;8520;50.102;20.010;2022-09-20T12:05:40;2.92;;;2.83;;
16804;SDS011;8520;50.102;20.010;2022-09-20T12:08:36;4.35;;;3.58;;
16804;SDS011;8520;50.102;20.010;2022-09-20T12:11:30;3.05;;;2.85;;
16804;SDS011;8520;50.102;20.010;2022-09-20T12:14:22;2.70;;;2.60;;
16804;SDS011;8520;50.102;20.010;2022-09-20T12:23:45;2.45;;;2.35;;
16804;SDS011;8520;50.102;20.010;2022-09-20T12:26:51;2.38;;;2.28;;
16804;SDS011;8520;50.102;20.010;2022-09-20T12:29:53;2.50;;;2.40;;
16804;SDS011;8520;50.102;20.010;2022-09-20T12:32:53;2.53;;;2.42;;
16804;SDS011;8520;50.102;20.010;2022-09-20T12:35:56;2.92;;;2.72;;
16804;SDS011;8520;50.102;20.010;2022-09-20T12:39:03;2.80;;;2.60;;
16804;SDS011;8520;50.102;20.010;2022-09-20T12:42:21;3.03;;;2.83;;
16804;SDS011;8520;50.102;20.010;2022-09-20T12:45:15;3.05;;;2.95;;
16804;SDS011;8520;50.102;20.010;2022-09-20T12:48:14;5.25;;;3.60;;
16804;SDS011;8520;50.102;20.010;2022-09-20T12:51:15;3.10;;;2.90;;
16804;SDS011;8520;50.102;20.010;2022-09-20T12:54:26;3.00;;;2.80;;
16804;SDS011;8520;50.102;20.010;2022-09-20T12:57:27;3.22;;;3.13;;
16804;SDS011;8520;50.102;20.010;2022-09-20T13:00:26;3.22;;;2.92;;
16804;SDS011;8520;50.102;20.010;2022-09-20T13:03:24;3.03;;;2.70;;
16804;SDS011;8520;50.102;20.010;2022-09-20T13:06:22;3.17;;;3.08;;
16804;SDS011;8520;50.102;20.010;2022-09-20T13:09:12;2.28;;;2.17;;
16804;SDS011;8520;50.102;20.010;2022-09-20T13:12:02;2.85;;;2.75;;
16804;SDS011;8520;50.102;20.010;2022-09-20T13:14:59;2.58;;;2.40;;
16804;SDS011;8520;50.102;20.010;2022-09-20T13:17:48;3.37;;;3.20;;
16804;SDS011;8520;50.102;20.010;2022-09-20T13:20:39;3.63;;;3.43;;
16804;SDS011;8520;50.102;20.010;2022-09-20T13:23:30;3.30;;;3.10;;
16804;SDS011;8520;50.102;20.010;2022-09-20T13:26:23;3.50;;;3.30;;
16804;SDS011;8520;50.102;20.010;2022-09-20T13:29:19;3.33;;;3.13;;
16804;SDS011;8520;50.102;20.010;2022-09-20T13:32:19;2.93;;;2.73;;
16804;SDS011;8520;50.102;20.010;2022-09-20T13:35:12;3.00;;;2.90;;
16804;SDS011;8520;50.102;20.010;2022-09-20T13:38:03;3.20;;;3.00;;
16804;SDS011;8520;50.102;20.010;2022-09-20T13:40:57;3.57;;;3.47;;
16804;SDS011;8520;50.102;20.010;2022-09-20T13:43:50;3.63;;;2.70;;
16804;SDS011;8520;50.102;20.010;2022-09-20T13:46:41;2.97;;;2.70;;
16804;SDS011;8520;50.102;20.010;2022-09-20T13:49:32;2.70;;;2.60;;
16804;SDS011;8520;50.102;20.010;2022-09-20T13:52:21;2.28;;;2.17;;
16804;SDS011;8520;50.102;20.010;2022-09-20T13:55:19;2.60;;;2.50;;
16804;SDS011;8520;50.102;20.010;2022-09-20T13:58:19;2.58;;;2.47;;
16804;SDS011;8520;50.102;20.010;2022-09-20T14:01:18;2.80;;;2.60;;
16804;SDS011;8520;50.102;20.010;2022-09-20T14:04:12;3.55;;;2.83;;
16804;SDS011;8520;50.102;20.010;2022-09-20T14:07:05;2.40;;;2.30;;
16804;SDS011;8520;50.102;20.010;2022-09-20T14:09:55;2.88;;;2.70;;
16804;SDS011;8520;50.102;20.010;2022-09-20T14:12:51;3.25;;;2.97;;
16804;SDS011;8520;50.102;20.010;2022-09-20T14:15:41;2.80;;;2.70;;
16804;SDS011;8520;50.102;20.010;2022-09-20T14:18:32;2.50;;;2.40;;
16804;SDS011;8520;50.102;20.010;2022-09-20T14:21:25;2.63;;;2.42;;
16804;SDS011;8520;50.102;20.010;2022-09-20T14:24:25;3.40;;;2.60;;
16804;SDS011;8520;50.102;20.010;2022-09-20T14:27:18;2.72;;;2.60;;
16804;SDS011;8520;50.102;20.010;2022-09-20T14:33:17;3.10;;;2.90;;
16804;SDS011;8520;50.102;20.010;2022-09-20T14:36:10;2.90;;;2.70;;
16804;SDS011;8520;50.102;20.010;2022-09-20T14:39:02;3.20;;;3.00;;
16804;SDS011;8520;50.102;20.010;2022-09-20T14:41:53;2.97;;;2.85;;
16804;SDS011;8520;50.102;20.010;2022-09-20T14:44:51;2.97;;;2.80;;
16804;SDS011;8520;50.102;20.010;2022-09-20T14:47:51;3.35;;;3.15;;
16804;SDS011;8520;50.102;20.010;2022-09-20T14:50:42;3.10;;;3.00;;
16804;SDS011;8520;50.102;20.010;2022-09-20T14:53:31;3.30;;;3.10;;
16804;SDS011;8520;50.102;20.010;2022-09-20T14:56:29;2.83;;;2.63;;
16804;SDS011;8520;50.102;20.010;2022-09-20T14:59:23;3.03;;;2.83;;
16804;SDS011;8520;50.102;20.010;2022-09-20T15:02:13;3.33;;;3.13;;
16804;SDS011;8520;50.102;20.010;2022-09-20T15:05:15;3.90;;;3.10;;
16804;SDS011;8520;50.102;20.010;2022-09-20T15:08:07;3.40;;;3.13;;
16804;SDS011;8520;50.102;20.010;2022-09-20T15:11:01;3.13;;;2.92;;
16804;SDS011;8520;50.102;20.010;2022-09-20T15:13:53;2.70;;;2.50;;
16804;SDS011;8520;50.102;20.010;2022-09-20T15:16:43;2.67;;;2.47;;
16804;SDS011;8520;50.102;20.010;2022-09-20T15:19:41;2.60;;;2.50;;
16804;SDS011;8520;50.102;20.010;2022-09-20T15:22:29;3.47;;;2.80;;
16804;SDS011;8520;50.102;20.010;2022-09-20T15:25:28;4.70;;;2.88;;
16804;SDS011;8520;50.102;20.010;2022-09-20T15:28:16;3.05;;;2.90;;
16804;SDS011;8520;50.102;20.010;2022-09-20T15:31:05;3.17;;;2.97;;
16804;SDS011;8520;50.102;20.010;2022-09-20T15:33:55;3.45;;;3.25;;
16804;SDS011;8520;50.102;20.010;2022-09-20T15:36:44;3.93;;;3.63;;
16804;SDS011;8520;50.102;20.010;2022-09-20T15:39:32;3.40;;;3.20;;
16804;SDS011;8520;50.102;20.010;2022-09-20T15:42:30;4.05;;;3.67;;
16804;SDS011;8520;50.102;20.010;2022-09-20T15:45:18;4.40;;;4.10;;
16804;SDS011;8520;50.102;20.010;2022-09-20T15:48:16;3.58;;;3.38;;
16804;SDS011;8520;50.102;20.010;2022-09-20T15:51:08;4.15;;;3.85;;
16804;SDS011;8520;50.102;20.010;2022-09-20T15:54:06;3.90;;;3.58;;
16804;SDS011;8520;50.102;20.010;2022-09-20T15:57:01;3.92;;;3.42;;
16804;SDS011;8520;50.102;20.010;2022-09-20T15:59:59;3.53;;;3.33;;
16804;SDS011;8520;50.102;20.010;2022-09-20T16:02:54;3.92;;;3.72;;
16804;SDS011;8520;50.102;20.010;2022-09-20T16:05:56;4.10;;;3.83;;
16804;SDS011;8520;50.102;20.010;2022-09-20T16:08:51;4.40;;;4.00;;
16804;SDS011;8520;50.102;20.010;2022-09-20T16:11:49;4.27;;;3.97;;
16804;SDS011;8520;50.102;20.010;2022-09-20T16:14:37;4.70;;;4.47;;
16804;SDS011;8520;50.102;20.010;2022-09-20T16:17:35;4.63;;;4.20;;
16804;SDS011;8520;50.102;20.010;2022-09-20T16:20:40;3.50;;;3.30;;
16804;SDS011;8520;50.102;20.010;2022-09-20T16:23:29;3.73;;;3.53;;
16804;SDS011;8520;50.102;20.010;2022-09-20T16:26:19;2.90;;;2.80;;
16804;SDS011;8520;50.102;20.010;2022-09-20T16:29:12;3.10;;;3.00;;
16804;SDS011;8520;50.102;20.010;2022-09-20T16:32:03;3.13;;;3.03;;
16804;SDS011;8520;50.102;20.010;2022-09-20T16:34:52;3.60;;;3.40;;
16804;SDS011;8520;50.102;20.010;2022-09-20T16:37:41;3.60;;;3.50;;
16804;SDS011;8520;50.102;20.010;2022-09-20T16:40:39;4.10;;;4.00;;
16804;SDS011;8520;50.102;20.010;2022-09-20T16:43:30;5.10;;;4.80;;
16804;SDS011;8520;50.102;20.010;2022-09-20T16:46:19;6.00;;;5.80;;
16804;SDS011;8520;50.102;20.010;2022-09-20T16:49:09;6.77;;;6.40;;
16804;SDS011;8520;50.102;20.010;2022-09-20T16:51:59;7.63;;;7.33;;
16804;SDS011;8520;50.102;20.010;2022-09-20T16:54:47;9.10;;;8.50;;
16804;SDS011;8520;50.102;20.010;2022-09-20T16:57:36;10.40;;;9.87;;
16804;SDS011;8520;50.102;20.010;2022-09-20T17:00:35;11.30;;;10.67;;
16804;SDS011;8520;50.102;20.010;2022-09-20T17:03:24;11.93;;;11.23;;
16804;SDS011;8520;50.102;20.010;2022-09-20T17:06:23;12.13;;;11.53;;
16804;SDS011;8520;50.102;20.010;2022-09-20T17:09:13;13.67;;;12.97;;
16804;SDS011;8520;50.102;20.010;2022-09-20T17:12:11;14.30;;;13.50;;
16804;SDS011;8520;50.102;20.010;2022-09-20T17:15:00;15.77;;;15.07;;
16804;SDS011;8520;50.102;20.010;2022-09-20T17:17:51;17.73;;;16.93;;
16804;SDS011;8520;50.102;20.010;2022-09-20T17:20:40;19.43;;;18.40;;
16804;SDS011;8520;50.102;20.010;2022-09-20T17:23:38;19.17;;;18.27;;
16804;SDS011;8520;50.102;20.010;2022-09-20T17:26:38;20.57;;;19.47;;
16804;SDS011;8520;50.102;20.010;2022-09-20T17:29:32;20.93;;;19.83;;
16804;SDS011;8520;50.102;20.010;2022-09-20T17:32:23;20.57;;;19.57;;
16804;SDS011;8520;50.102;20.010;2022-09-20T17:35:22;21.00;;;19.90;;
16804;SDS011;8520;50.102;20.010;2022-09-20T17:38:11;20.60;;;19.40;;
16804;SDS011;8520;50.102;20.010;2022-09-20T17:41:09;21.07;;;19.90;;
16804;SDS011;8520;50.102;20.010;2022-09-20T17:44:00;20.90;;;20.00;;
16804;SDS011;8520;50.102;20.010;2022-09-20T17:46:54;20.80;;;19.80;;
16804;SDS011;8520;50.102;20.010;2022-09-20T17:49:42;21.30;;;20.30;;
16804;SDS011;8520;50.102;20.010;2022-09-20T17:52:33;20.90;;;19.90;;
16804;SDS011;8520;50.102;20.010;2022-09-20T17:55:30;21.23;;;20.13;;
16804;SDS011;8520;50.102;20.010;2022-09-20T17:58:20;20.97;;;19.93;;
16804;SDS011;8520;50.102;20.010;2022-09-20T18:01:18;21.87;;;20.50;;
16804;SDS011;8520;50.102;20.010;2022-09-20T18:04:07;22.37;;;21.27;;
16804;SDS011;8520;50.102;20.010;2022-09-20T18:06:56;21.40;;;20.30;;
16804;SDS011;8520;50.102;20.010;2022-09-20T18:09:47;21.93;;;20.87;;
16804;SDS011;8520;50.102;20.010;2022-09-20T18:12:37;21.80;;;20.80;;